Time;durP1;ratioP1;P1;durP2;ratioP2;P2;SDS_P1;SDS_P2;PMS_P1;PMS_P2;Temp;Humidity;BMP_temperature;BMP_pressure;BME280_temperature;BME280_humidity;BME280_pressure;Samples;Min_cycle;Max_cycle;Signal;HPM_P1;HPM_P2
2024/02/08 00:00:36;;;;;;;13.52;5.80;;;1.10;99.90;;;;;;6251070;22;20030;-82
2024/02/08 00:03:07;;;;;;;10.50;4.78;;;1.10;99.90;;;;;;6276131;22;20466;-82
2024/02/08 00:05:33;;;;;;;12.55;5.07;;;1.00;99.90;;;;;;6250777;22;20084;-82
2024/02/08 00:07:58;;;;;;;10.57;3.58;;;1.00;99.90;;;;;;6250946;22;20019;-82
2024/02/08 00:10:24;;;;;;;11.27;5.75;;;1.10;99.90;;;;;;6303598;22;20082;-82
2024/02/08 00:12:50;;;;;;;10.45;4.32;;;1.10;99.90;;;;;;6276878;22;20007;-83
2024/02/08 00:15:16;;;;;;;9.07;4.07;;;1.00;99.90;;;;;;6276792;22;20003;-82
2024/02/08 00:17:42;;;;;;;10.77;4.05;;;1.20;99.90;;;;;;6276031;22;20017;-82
2024/02/08 00:20:07;;;;;;;9.10;3.92;;;1.20;99.90;;;;;;6251149;22;20013;-82
2024/02/08 00:22:33;;;;;;;8.93;3.60;;;1.20;99.90;;;;;;6276225;22;20037;-83
2024/02/08 00:25:00;;;;;;;8.02;3.58;;;1.10;99.90;;;;;;6250812;22;20036;-83
2024/02/08 00:27:26;;;;;;;8.38;2.92;;;1.20;99.90;;;;;;6250638;22;20030;-82
2024/02/08 00:29:51;;;;;;;7.30;2.63;;;1.30;99.90;;;;;;6276741;22;20435;-83
2024/02/08 00:32:19;;;;;;;6.55;2.70;;;1.30;99.90;;;;;;6250280;22;20004;-82
2024/02/08 00:34:45;;;;;;;6.82;2.50;;;1.30;99.90;;;;;;6303495;22;20014;-83
2024/02/08 00:37:10;;;;;;;7.60;2.28;;;1.30;99.90;;;;;;6275960;22;20007;-82
2024/02/08 00:39:43;;;;;;;5.68;1.90;;;1.30;99.90;;;;;;6250901;22;20379;-82
2024/02/08 00:42:11;;;;;;;6.63;1.92;;;1.20;99.90;;;;;;6250698;22;20046;-83
2024/02/08 00:44:41;;;;;;;5.50;2.42;;;1.20;99.90;;;;;;6302114;22;20034;-82
2024/02/08 00:47:08;;;;;;;5.70;2.15;;;1.10;99.90;;;;;;6276461;22;20025;-83
2024/02/08 00:49:34;;;;;;;5.93;2.80;;;1.10;99.90;;;;;;6302036;22;20041;-82
2024/02/08 00:52:00;;;;;;;9.40;2.42;;;1.10;99.90;;;;;;6275893;22;20003;-83
2024/02/08 00:54:26;;;;;;;5.47;1.35;;;1.10;99.90;;;;;;6250477;22;20007;-83
2024/02/08 00:56:53;;;;;;;5.07;1.73;;;1.20;99.90;;;;;;6303500;22;20000;-83
2024/02/08 00:59:22;;;;;;;4.53;1.40;;;1.20;99.90;;;;;;6276026;22;20397;-82
2024/02/08 01:01:48;;;;;;;3.63;1.13;;;1.20;99.90;;;;;;6276265;22;20007;-83
2024/02/08 01:04:13;;;;;;;3.80;1.45;;;1.30;99.90;;;;;;6303581;22;20088;-82
2024/02/08 01:06:40;;;;;;;4.18;2.15;;;1.40;99.90;;;;;;6276503;22;20102;-81
2024/02/08 01:09:07;;;;;;;5.18;2.00;;;1.40;99.90;;;;;;6250675;22;20094;-83
2024/02/08 01:11:34;;;;;;;3.53;1.33;;;1.40;99.90;;;;;;6275952;22;20090;-82
2024/02/08 01:14:01;;;;;;;5.75;1.60;;;1.50;99.90;;;;;;6303211;22;20422;-82
2024/02/08 01:16:30;;;;;;;4.32;1.90;;;1.40;99.90;;;;;;6275207;22;20383;-83
2024/02/08 01:18:56;;;;;;;4.90;1.65;;;1.40;99.90;;;;;;6276057;22;20023;-82
2024/02/08 01:21:22;;;;;;;6.85;1.40;;;1.40;99.90;;;;;;6276810;22;20431;-82
2024/02/08 01:23:49;;;;;;;6.03;1.75;;;1.30;99.90;;;;;;6276122;22;20022;-82
2024/02/08 01:26:15;;;;;;;5.85;1.92;;;1.30;99.90;;;;;;6276073;22;20293;-82
2024/02/08 01:28:41;;;;;;;3.78;1.70;;;1.10;99.90;;;;;;6275834;22;20021;-83
2024/02/08 01:31:07;;;;;;;3.83;1.33;;;1.10;99.90;;;;;;6275745;22;19999;-82
2024/02/08 01:33:36;;;;;;;4.47;1.48;;;1.20;99.90;;;;;;6275685;22;20022;-82
2024/02/08 01:36:05;;;;;;;5.40;1.23;;;1.20;99.90;;;;;;6276521;22;19999;-83
2024/02/08 01:38:30;;;;;;;4.38;1.60;;;1.20;99.90;;;;;;6275849;22;20078;-83
2024/02/08 01:40:56;;;;;;;3.63;1.08;;;1.20;99.90;;;;;;6302763;22;20008;-82
2024/02/08 01:43:22;;;;;;;5.18;1.73;;;1.20;99.90;;;;;;6304889;22;20007;-83
2024/02/08 01:45:50;;;;;;;2.75;1.17;;;1.20;99.90;;;;;;6252468;22;20000;-82
2024/02/08 01:48:16;;;;;;;3.53;0.80;;;1.30;99.90;;;;;;6251862;22;20015;-83
2024/02/08 01:50:51;;;;;;;3.20;0.93;;;1.30;99.90;;;;;;6277961;22;20082;-83
2024/02/08 01:53:27;;;;;;;3.33;1.48;;;1.30;99.90;;;;;;6277565;22;20018;-83
2024/02/08 01:55:53;;;;;;;3.33;1.27;;;1.30;99.90;;;;;;6277815;22;20007;-83
2024/02/08 01:58:22;;;;;;;3.15;0.90;;;1.30;99.90;;;;;;6277192;22;19999;-83
2024/02/08 02:00:50;;;;;;;3.03;0.85;;;1.40;99.90;;;;;;6303404;22;20324;-83
2024/02/08 02:03:19;;;;;;;3.70;1.08;;;1.40;99.90;;;;;;6277313;22;20026;-83
2024/02/08 02:05:46;;;;;;;2.03;0.60;;;1.50;99.90;;;;;;6252242;22;20007;-83
2024/02/08 02:08:33;;;;;;;5.75;0.80;;;1.50;99.90;;;;;;6251854;22;20018;-83
2024/02/08 02:11:17;;;;;;;2.28;0.65;;;1.50;99.90;;;;;;6277826;22;20011;-83
2024/02/08 02:13:46;;;;;;;2.70;0.65;;;1.50;99.90;;;;;;6303539;22;20479;-83
2024/02/08 02:16:12;;;;;;;3.40;0.60;;;1.50;99.90;;;;;;6277033;22;20007;-82
2024/02/08 02:18:39;;;;;;;6.75;0.90;;;1.50;99.90;;;;;;6303134;22;20447;-83
2024/02/08 02:21:05;;;;;;;2.28;0.52;;;1.60;99.90;;;;;;6277635;22;20010;-83
2024/02/08 02:23:31;;;;;;;2.65;0.70;;;1.50;99.90;;;;;;6277246;22;20007;-83
2024/02/08 02:25:58;;;;;;;3.58;0.77;;;1.40;99.90;;;;;;6252265;22;20010;-83
2024/02/08 02:28:25;;;;;;;2.35;0.60;;;1.30;99.90;;;;;;6276681;22;20376;-83
2024/02/08 02:30:51;;;;;;;2.70;0.82;;;1.30;99.90;;;;;;6277850;22;20061;-83
2024/02/08 02:33:19;;;;;;;2.30;0.70;;;1.40;99.90;;;;;;6276845;22;20448;-83
2024/02/08 02:35:48;;;;;;;1.85;0.65;;;1.30;99.90;;;;;;6252474;22;20038;-83
2024/02/08 02:38:24;;;;;;;3.15;0.70;;;1.30;99.90;;;;;;6251729;22;20015;-83
2024/02/08 02:40:49;;;;;;;1.98;0.63;;;1.30;99.90;;;;;;6251507;22;20003;-83
2024/02/08 02:43:15;;;;;;;3.60;0.50;;;1.60;99.90;;;;;;6277120;22;20295;-83
2024/02/08 02:45:41;;;;;;;1.98;0.60;;;1.60;99.90;;;;;;6277357;22;20011;-82
2024/02/08 02:48:07;;;;;;;2.75;0.68;;;1.60;99.90;;;;;;6303368;22;20094;-83
2024/02/08 02:50:34;;;;;;;4.05;0.70;;;1.70;99.90;;;;;;6276394;22;20011;-82
2024/02/08 02:53:00;;;;;;;2.38;0.60;;;1.70;99.90;;;;;;6277444;22;20004;-83
2024/02/08 02:55:27;;;;;;;2.85;0.70;;;1.70;99.90;;;;;;6277132;22;20303;-82
2024/02/08 02:57:57;;;;;;;2.50;0.60;;;1.70;99.90;;;;;;6277366;22;20311;-83
2024/02/08 03:00:33;;;;;;;2.17;0.98;;;1.70;99.90;;;;;;6304141;22;20317;-83
2024/02/08 03:03:06;;;;;;;3.72;0.70;;;1.70;99.90;;;;;;6251927;22;20125;-83
2024/02/08 03:05:34;;;;;;;2.20;0.65;;;1.70;99.90;;;;;;6277504;22;20011;-83
2024/02/08 03:08:04;;;;;;;2.22;0.70;;;1.70;99.90;;;;;;6251256;22;20019;-83
2024/02/08 03:10:32;;;;;;;2.67;0.52;;;1.70;99.90;;;;;;6303994;22;20121;-83
2024/02/08 03:12:58;;;;;;;1.88;0.57;;;1.80;99.90;;;;;;6251168;22;20010;-83
2024/02/08 03:15:24;;;;;;;3.75;0.50;;;1.80;99.90;;;;;;6251649;22;20007;-83
2024/02/08 03:17:49;;;;;;;3.08;0.60;;;1.80;99.90;;;;;;6276791;22;20471;-83
2024/02/08 03:20:29;;;;;;;2.63;0.70;;;1.80;99.90;;;;;;6302682;22;20057;-83
2024/02/08 03:22:58;;;;;;;1.80;0.50;;;1.80;99.90;;;;;;6251582;22;20007;-83
2024/02/08 03:25:25;;;;;;;3.72;0.68;;;1.70;99.90;;;;;;6276429;22;20007;-83
2024/02/08 03:27:51;;;;;;;3.83;0.82;;;1.70;99.90;;;;;;6302819;22;20014;-83
2024/02/08 03:30:30;;;;;;;3.70;0.60;;;1.80;99.90;;;;;;6277092;22;20011;-83
2024/02/08 03:32:57;;;;;;;3.28;0.70;;;1.80;99.90;;;;;;6276851;22;20007;-83
2024/02/08 03:35:32;;;;;;;2.40;0.65;;;1.90;99.90;;;;;;6276987;22;20451;-82
2024/02/08 03:38:01;;;;;;;2.63;1.17;;;1.80;99.90;;;;;;6277072;22;20011;-83
2024/02/08 03:40:33;;;;;;;3.72;0.70;;;1.80;99.90;;;;;;6303512;22;20003;-83
2024/02/08 03:42:59;;;;;;;3.25;1.00;;;1.90;99.90;;;;;;6250650;22;20132;-83
2024/02/08 03:45:27;;;;;;;1.85;0.60;;;1.90;99.90;;;;;;6302315;22;20115;-83
2024/02/08 03:47:58;;;;;;;2.97;0.50;;;1.90;99.90;;;;;;6276890;22;20084;-83
2024/02/08 03:50:25;;;;;;;2.63;0.60;;;1.90;99.90;;;;;;6276208;22;20557;-82
2024/02/08 03:52:51;;;;;;;2.28;0.77;;;1.90;99.90;;;;;;6303635;22;20007;-83
2024/02/08 03:55:26;;;;;;;4.38;0.60;;;1.90;99.90;;;;;;6276162;22;20451;-84
2024/02/08 03:58:00;;;;;;;3.28;0.70;;;1.90;99.90;;;;;;6276904;22;20058;-83
2024/02/08 04:00:29;;;;;;;2.58;0.90;;;1.90;99.90;;;;;;6251089;22;20015;-84
2024/02/08 04:03:01;;;;;;;3.55;0.75;;;1.80;99.90;;;;;;6250844;22;20302;-83
2024/02/08 04:05:58;;;;;;;3.97;0.65;;;1.90;99.90;;;;;;6276405;22;20007;-83
2024/02/08 04:54:43;;;;;;;2.38;0.75;;;2.20;99.90;;;;;;6303167;22;20004;-85
2024/02/08 04:57:09;;;;;;;2.15;0.77;;;2.20;99.90;;;;;;6276588;22;19999;-85
2024/02/08 04:59:44;;;;;;;3.33;0.80;;;2.20;99.90;;;;;;6276609;22;20038;-84
2024/02/08 05:02:11;;;;;;;3.47;0.60;;;2.20;99.90;;;;;;6250579;22;20017;-83
2024/02/08 05:04:36;;;;;;;2.53;0.70;;;2.20;99.90;;;;;;6276352;22;20027;-85
2024/02/08 05:07:09;;;;;;;2.03;0.80;;;2.20;99.90;;;;;;6303712;22;20008;-83
2024/02/08 05:09:35;;;;;;;4.22;0.90;;;2.20;99.90;;;;;;6276403;22;20361;-84
2024/02/08 05:12:05;;;;;;;3.17;0.80;;;2.20;99.90;;;;;;6250744;22;20008;-84
2024/02/08 05:14:34;;;;;;;4.47;0.85;;;2.20;99.90;;;;;;6303022;22;20188;-83
2024/02/08 05:17:01;;;;;;;2.05;0.70;;;2.20;99.90;;;;;;6277571;22;20015;-85
2024/02/08 05:19:26;;;;;;;3.28;0.75;;;2.20;99.90;;;;;;6275226;22;20035;-85
2024/02/08 05:21:58;;;;;;;4.47;1.08;;;2.20;99.90;;;;;;6303262;22;20011;-84
2024/02/08 05:24:26;;;;;;;4.75;0.73;;;2.10;99.90;;;;;;6277700;22;20057;-84
2024/02/08 05:26:53;;;;;;;4.47;1.10;;;2.20;99.90;;;;;;6277983;22;20026;-84
2024/02/08 05:29:19;;;;;;;5.97;1.10;;;2.20;99.90;;;;;;6277193;22;20011;-84
2024/02/08 05:31:47;;;;;;;2.42;0.73;;;2.20;99.90;;;;;;6277604;22;20011;-84
2024/02/08 05:34:15;;;;;;;3.60;0.75;;;2.10;99.90;;;;;;6277341;22;20086;-84
2024/02/08 05:36:45;;;;;;;2.72;0.80;;;2.10;99.90;;;;;;6251885;22;20007;-84
2024/02/08 05:39:12;;;;;;;3.47;0.70;;;2.10;99.90;;;;;;6277597;22;20090;-84
2024/02/08 05:41:38;;;;;;;2.20;0.82;;;2.10;99.90;;;;;;6278334;22;20717;-84
2024/02/08 05:44:07;;;;;;;3.28;0.95;;;2.00;99.90;;;;;;6277680;22;20011;-85
2024/02/08 05:46:42;;;;;;;3.55;0.68;;;2.00;99.90;;;;;;6251929;22;20078;-85
2024/02/08 05:49:14;;;;;;;2.88;0.80;;;2.10;99.90;;;;;;6251389;22;20027;-85
2024/02/08 05:51:46;;;;;;;3.50;0.82;;;2.10;99.90;;;;;;6277930;22;20374;-85
2024/02/08 05:54:16;;;;;;;3.65;0.75;;;2.10;99.90;;;;;;6277722;22;20014;-84
2024/02/08 05:56:43;;;;;;;5.40;1.10;;;2.20;99.90;;;;;;6304742;22;20052;-85
2024/02/08 05:59:09;;;;;;;3.65;0.82;;;2.20;99.90;;;;;;6277910;22;20004;-85
2024/02/08 06:01:46;;;;;;;2.70;0.70;;;2.20;99.90;;;;;;6277409;22;20014;-85
2024/02/08 06:04:22;;;;;;;2.95;0.98;;;2.20;99.90;;;;;;6251337;22;20007;-84
2024/02/08 06:06:53;;;;;;;3.92;0.88;;;2.20;99.90;;;;;;6276611;22;20011;-86
2024/02/08 06:12:09;;;;;;;3.80;1.02;;;2.20;99.90;;;;;;6277324;22;20018;-85
2024/02/08 06:14:38;;;;;;;2.88;0.75;;;2.20;99.90;;;;;;6277772;22;20007;-84
2024/02/08 06:17:11;;;;;;;2.67;0.60;;;2.20;99.90;;;;;;6277592;22;20031;-85
2024/02/08 06:19:39;;;;;;;2.38;0.73;;;2.20;99.90;;;;;;6271719;22;20269;-84
2024/02/08 06:22:22;;;;;;;2.38;0.77;;;2.30;99.90;;;;;;6276886;22;20007;-85
2024/02/08 06:25:45;;;;;;;3.85;0.90;;;2.30;99.90;;;;;;6251482;22;20087;-85
2024/02/08 06:27:47;;;;;;;2.38;0.70;;;2.20;99.90;;;;;;6265092;22;20347;-85
2024/02/08 06:30:18;;;;;;;4.70;0.98;;;2.30;99.90;;;;;;6277249;22;20086;-84
2024/02/08 06:32:44;;;;;;;3.63;0.93;;;2.30;99.90;;;;;;6277046;22;20014;-83
2024/02/08 06:35:19;;;;;;;2.90;0.80;;;2.30;99.90;;;;;;6277930;22;20289;-84
2024/02/08 06:37:58;;;;;;;2.67;0.73;;;2.30;99.90;;;;;;6304979;22;20003;-83
2024/02/08 06:40:36;;;;;;;2.97;0.77;;;2.30;99.90;;;;;;6251435;22;20007;-83
2024/02/08 07:37:42;;;;;;;4.88;1.10;;;2.80;99.90;;;;;;6274224;22;20065;-84
2024/02/08 07:40:23;;;;;;;6.32;1.48;;;2.80;99.90;;;;;;6248724;22;20034;-84
2024/02/08 07:45:55;;;;;;;4.20;1.08;;;2.80;99.90;;;;;;6302573;22;20007;-84
2024/02/08 07:48:43;;;;;;;2.95;1.05;;;2.90;99.90;;;;;;6248613;22;20056;-84
2024/02/08 07:51:10;;;;;;;5.35;1.50;;;2.90;99.90;;;;;;6249291;22;20011;-84
2024/02/08 07:53:51;;;;;;;5.45;1.00;;;2.90;99.90;;;;;;6249204;22;20008;-84
2024/02/08 07:58:56;;;;;;;3.22;1.35;;;2.90;99.90;;;;;;6274468;22;20015;-83
2024/02/08 08:01:30;;;;;;;4.95;1.45;;;3.00;99.90;;;;;;6273829;22;20000;-84
2024/02/08 08:04:01;;;;;;;6.43;1.83;;;3.00;99.90;;;;;;6274290;22;20037;-82
2024/02/08 08:06:34;;;;;;;6.50;2.10;;;3.00;99.90;;;;;;6248857;22;20007;-84
2024/02/08 08:09:18;;;;;;;5.10;1.67;;;3.00;99.90;;;;;;6300633;22;20381;-84
2024/02/08 08:11:55;;;;;;;3.08;0.95;;;3.10;99.90;;;;;;6273996;22;20009;-84
2024/02/08 08:15:12;;;;;;;5.07;1.25;;;3.20;99.90;;;;;;6248846;22;20007;-84
2024/02/08 08:19:50;;;;;;;5.60;1.40;;;3.20;99.90;;;;;;6300238;22;20007;-84
2024/02/08 08:22:18;;;;;;;3.85;0.90;;;3.30;99.90;;;;;;6274479;22;20032;-83
2024/02/08 08:27:47;;;;;;;3.50;0.80;;;3.30;99.90;;;;;;6273852;22;20010;-84
2024/02/08 08:30:27;;;;;;;4.68;0.90;;;3.40;99.90;;;;;;6301075;22;20080;-83
2024/02/08 08:40:48;;;;;;;2.63;1.08;;;3.60;99.90;;;;;;6274909;22;20014;-84
2024/02/08 08:43:19;;;;;;;4.35;1.67;;;3.60;99.90;;;;;;6301241;22;20005;-83
2024/02/08 08:45:50;;;;;;;3.88;0.63;;;3.60;99.90;;;;;;6249007;22;20019;-84
2024/02/08 08:48:20;;;;;;;6.53;1.00;;;3.70;99.90;;;;;;6273958;22;20004;-84
2024/02/08 08:50:55;;;;;;;4.03;0.73;;;3.70;99.90;;;;;;6276111;22;20018;-84
2024/02/08 08:53:28;;;;;;;4.40;1.30;;;3.70;99.90;;;;;;6276290;22;20057;-84
2024/02/08 08:55:57;;;;;;;5.75;1.00;;;3.70;99.90;;;;;;6277202;22;20003;-84
2024/02/08 08:58:27;;;;;;;3.85;0.75;;;3.80;99.90;;;;;;6275730;22;20008;-84
2024/02/08 09:01:04;;;;;;;3.38;0.70;;;3.80;99.90;;;;;;6276575;22;20023;-84
2024/02/08 09:03:39;;;;;;;2.95;0.82;;;3.80;99.90;;;;;;6302863;22;20019;-84
2024/02/08 09:06:12;;;;;;;6.45;1.20;;;3.90;99.90;;;;;;6250535;22;20011;-83
2024/02/08 09:08:46;;;;;;;3.50;1.00;;;3.90;99.90;;;;;;6276602;22;20501;-84
2024/02/08 09:11:13;;;;;;;3.13;1.05;;;3.90;99.90;;;;;;6250464;22;20125;-83
2024/02/08 09:13:42;;;;;;;5.03;1.38;;;3.90;99.90;;;;;;6303742;22;20007;-83
2024/02/08 09:21:26;;;;;;;4.70;1.00;;;4.10;99.90;;;;;;6275724;22;20003;-85
2024/02/08 09:23:53;;;;;;;6.13;1.35;;;4.00;99.90;;;;;;6303554;22;20007;-84
2024/02/08 09:26:24;;;;;;;4.90;1.20;;;4.00;99.90;;;;;;6304264;22;20003;-84
2024/02/08 09:28:53;;;;;;;5.65;1.23;;;4.00;99.90;;;;;;6275796;22;20018;-85
2024/02/08 09:31:18;;;;;;;10.50;1.05;;;4.10;99.90;;;;;;6249761;22;20459;-84
2024/02/08 09:33:45;;;;;;;4.15;1.10;;;4.10;99.90;;;;;;6276162;22;20018;-85
2024/02/08 09:36:17;;;;;;;3.08;0.98;;;4.10;99.90;;;;;;6250856;22;20034;-85
2024/02/08 09:38:44;;;;;;;6.85;1.42;;;4.10;99.90;;;;;;6250970;22;20003;-85
2024/02/08 09:41:20;;;;;;;3.30;0.93;;;4.10;99.90;;;;;;6275931;22;20085;-85
2024/02/08 09:43:46;;;;;;;8.18;1.35;;;4.20;99.90;;;;;;6250294;22;20523;-82
2024/02/08 09:46:49;;;;;;;5.90;0.85;;;4.20;99.90;;;;;;6301950;22;20071;-85
2024/02/08 09:49:17;;;;;;;4.18;1.05;;;4.20;99.90;;;;;;6276095;22;20050;-85
2024/02/08 09:51:52;;;;;;;3.28;0.60;;;4.20;99.90;;;;;;6251160;22;20523;-85
2024/02/08 09:54:26;;;;;;;3.38;0.80;;;4.20;99.90;;;;;;6303162;22;20057;-85
2024/02/08 09:57:01;;;;;;;5.13;1.05;;;4.20;99.90;;;;;;6276091;22;20018;-85
2024/02/08 10:02:32;;;;;;;6.38;1.63;;;4.20;99.90;;;;;;6233846;22;20003;-84
2024/02/08 10:05:18;;;;;;;12.25;2.55;;;4.20;99.90;;;;;;6275712;22;20011;-85
2024/02/08 10:08:08;;;;;;;7.93;2.85;;;4.20;99.90;;;;;;6275913;22;20011;-85
2024/02/08 10:10:43;;;;;;;8.77;2.83;;;4.20;99.90;;;;;;6275515;22;20015;-85
2024/02/08 10:13:25;;;;;;;10.18;3.80;;;4.20;99.90;;;;;;6275956;22;20015;-84
2024/02/08 10:15:55;;;;;;;11.18;2.60;;;4.20;99.90;;;;;;6275429;22;20007;-84
2024/02/08 10:18:37;;;;;;;9.60;3.30;;;4.30;99.90;;;;;;6276088;22;20447;-84
2024/02/08 10:21:12;;;;;;;11.38;3.40;;;4.30;99.90;;;;;;6250466;22;20459;-84
2024/02/08 10:24:11;;;;;;;9.52;2.65;;;4.30;99.90;;;;;;6249815;22;20015;-84
2024/02/08 10:26:45;;;;;;;12.18;3.08;;;4.30;99.90;;;;;;6275251;22;20014;-83
2024/02/08 10:29:14;;;;;;;12.52;2.85;;;4.30;99.90;;;;;;6275239;22;20012;-83
2024/02/08 10:31:40;;;;;;;7.45;2.55;;;4.30;99.90;;;;;;6249713;22;20014;-84
2024/02/08 10:34:08;;;;;;;10.27;2.13;;;4.30;99.90;;;;;;6275024;22;20011;-83
2024/02/08 10:36:44;;;;;;;8.25;2.53;;;4.40;99.90;;;;;;6249507;22;20003;-84
2024/02/08 10:39:26;;;;;;;11.70;3.45;;;4.40;99.90;;;;;;6249383;22;20011;-84
2024/02/08 10:44:29;;;;;;;12.80;3.08;;;4.40;99.90;;;;;;6302435;22;20086;-84
2024/02/08 10:47:09;;;;;;;8.93;3.50;;;4.40;99.90;;;;;;6303077;22;20011;-84
2024/02/08 10:49:46;;;;;;;8.95;3.28;;;4.50;99.90;;;;;;6275893;22;20019;-84
2024/02/08 10:52:15;;;;;;;10.73;3.95;;;4.50;99.90;;;;;;6275011;22;20439;-84
2024/02/08 10:54:48;;;;;;;11.57;3.42;;;4.50;99.90;;;;;;6249873;22;20008;-84
2024/02/08 10:57:39;;;;;;;11.77;3.58;;;4.50;99.90;;;;;;6249619;22;20110;-85
2024/02/08 11:06:26;;;;;;;5.32;2.60;;;4.40;99.90;;;;;;6263877;22;20011;-84
2024/02/08 11:09:09;;;;;;;8.20;2.58;;;4.40;99.90;;;;;;6275624;22;20012;-84
2024/02/08 11:11:38;;;;;;;9.88;2.53;;;4.40;99.90;;;;;;6276343;22;20138;-84
2024/02/08 11:14:08;;;;;;;6.65;1.92;;;4.30;99.90;;;;;;6249887;22;20089;-84
2024/02/08 11:16:37;;;;;;;5.93;2.15;;;4.30;99.90;;;;;;6274688;22;20301;-84
2024/02/08 11:19:08;;;;;;;9.68;2.85;;;4.30;99.90;;;;;;6302491;22;20019;-84
2024/02/08 11:21:43;;;;;;;9.63;2.67;;;4.30;99.90;;;;;;6274430;22;20080;-84
2024/02/08 11:24:27;;;;;;;8.00;2.40;;;4.30;99.90;;;;;;6300949;22;20462;-84
2024/02/08 11:27:01;;;;;;;7.13;1.80;;;4.30;99.90;;;;;;6275286;22;20210;-84
2024/02/08 11:29:28;;;;;;;7.15;2.72;;;4.40;99.90;;;;;;6248559;22;20398;-85
2024/02/08 11:31:59;;;;;;;7.65;2.33;;;4.40;99.90;;;;;;6274772;22;20071;-84
2024/02/08 11:34:33;;;;;;;10.57;3.08;;;4.40;99.90;;;;;;6302144;22;20014;-84
2024/02/08 11:37:15;;;;;;;8.38;3.05;;;4.40;99.90;;;;;;6249629;22;20436;-85
2024/02/08 11:39:46;;;;;;;6.82;3.03;;;4.30;99.90;;;;;;6274841;22;20432;-84
2024/02/08 11:42:17;;;;;;;8.98;2.80;;;4.40;99.90;;;;;;6249304;22;20011;-84
2024/02/08 11:44:43;;;;;;;;;;;4.30;99.90;;;;;;6249648;22;20039;-84
2024/02/08 11:47:19;;;;;;;10.02;3.22;;;4.40;99.90;;;;;;6249533;22;20430;-85
2024/02/08 11:50:00;;;;;;;9.35;3.38;;;4.30;99.90;;;;;;6274913;22;20109;-84
2024/02/08 11:52:27;;;;;;;7.47;2.53;;;4.40;99.90;;;;;;6274269;22;20033;-84
2024/02/08 11:55:10;;;;;;;8.73;2.63;;;4.40;99.90;;;;;;6300116;22;20066;-85
2024/02/08 11:57:40;;;;;;;8.85;2.45;;;4.50;99.90;;;;;;6300157;22;20014;-84
2024/02/08 12:00:15;;;;;;;;;;;4.50;99.90;;;;;;6275271;22;20011;-84
2024/02/08 12:02:56;;;;;;;6.30;1.48;;;4.60;99.90;;;;;;6249556;22;19903;-84
2024/02/08 12:05:24;;;;;;;5.88;1.67;;;4.50;99.90;;;;;;6274988;22;20068;-84
2024/02/08 12:07:50;;;;;;;6.43;1.52;;;4.60;99.90;;;;;;6248437;22;20315;-84
2024/02/08 12:10:17;;;;;;;4.72;1.42;;;4.60;99.90;;;;;;6274151;22;20037;-84
2024/02/08 12:12:45;;;;;;;6.32;1.48;;;4.60;99.90;;;;;;6301295;22;20007;-84
2024/02/08 12:15:13;;;;;;;5.72;1.50;;;4.60;99.90;;;;;;6274186;22;20443;-84
2024/02/08 12:17:48;;;;;;;6.50;1.75;;;4.60;99.90;;;;;;6301082;22;20039;-84
2024/02/08 12:20:16;;;;;;;3.92;0.98;;;4.50;99.90;;;;;;6274300;22;20004;-84
2024/02/08 12:22:41;;;;;;;6.07;1.45;;;4.60;99.90;;;;;;6249386;22;20098;-84
2024/02/08 12:25:15;;;;;;;5.13;1.15;;;4.50;99.90;;;;;;6301583;22;20389;-84
2024/02/08 12:27:48;;;;;;;3.92;1.27;;;4.50;99.90;;;;;;6273833;22;20007;-84
2024/02/08 12:30:21;;;;;;;7.35;1.38;;;4.50;99.90;;;;;;6301087;22;20083;-84
2024/02/08 12:32:51;;;;;;;6.07;1.77;;;4.50;99.90;;;;;;6299701;22;20439;-85
2024/02/08 12:35:21;;;;;;;6.80;2.20;;;4.50;99.90;;;;;;6248749;22;20243;-84
2024/02/08 12:37:48;;;;;;;5.82;1.58;;;4.60;99.90;;;;;;6248979;22;20230;-84
2024/02/08 12:40:16;;;;;;;6.53;1.63;;;4.50;99.90;;;;;;6274258;22;20042;-85
2024/02/08 12:42:42;;;;;;;8.07;2.28;;;4.60;99.90;;;;;;6275271;22;20108;-85
2024/02/08 12:45:12;;;;;;;6.63;2.13;;;4.60;99.90;;;;;;6274379;22;20015;-84
2024/02/08 12:47:41;;;;;;;10.63;2.25;;;4.50;99.90;;;;;;6248307;22;20011;-85
2024/02/08 12:50:10;;;;;;;7.05;1.90;;;4.50;99.90;;;;;;6273973;22;20014;-85
2024/02/08 12:52:40;;;;;;;5.93;2.40;;;4.50;99.90;;;;;;6274401;22;20007;-85
2024/02/08 12:55:09;;;;;;;5.93;2.38;;;4.50;99.90;;;;;;6249489;22;20015;-85
2024/02/08 12:57:36;;;;;;;9.45;2.13;;;4.40;99.90;;;;;;6249297;22;20007;-86
2024/02/08 13:00:13;;;;;;;5.43;1.83;;;4.40;99.90;;;;;;6301194;22;20003;-86
2024/02/08 13:02:40;;;;;;;6.45;2.58;;;4.50;99.90;;;;;;6248930;22;20003;-85
2024/02/08 13:05:06;;;;;;;6.43;2.20;;;4.40;99.90;;;;;;6249526;22;20011;-85
2024/02/08 13:07:35;;;;;;;8.77;2.65;;;4.30;99.90;;;;;;6273745;22;20439;-85
2024/02/08 13:10:03;;;;;;;7.53;3.00;;;4.30;99.90;;;;;;6248568;22;20008;-85
2024/02/08 13:12:29;;;;;;;8.65;2.92;;;4.30;99.90;;;;;;6274699;22;20007;-85
2024/02/08 13:15:10;;;;;;;9.50;3.05;;;4.30;99.90;;;;;;6248944;22;20077;-85
2024/02/08 13:17:37;;;;;;;13.02;3.58;;;4.30;99.90;;;;;;6247967;22;20183;-85
2024/02/08 13:20:11;;;;;;;6.70;2.92;;;4.30;99.90;;;;;;6301739;22;20011;-85
2024/02/08 13:22:37;;;;;;;10.25;2.40;;;4.20;99.90;;;;;;6274593;22;20023;-85
2024/02/08 13:25:12;;;;;;;6.18;2.35;;;4.20;99.90;;;;;;6274570;22;20376;-85
2024/02/08 13:27:39;;;;;;;6.95;2.28;;;4.10;99.90;;;;;;6275097;22;20018;-85
2024/02/08 13:30:15;;;;;;;3.88;1.65;;;4.20;99.90;;;;;;6248670;22;20340;-84
2024/02/08 13:32:42;;;;;;;5.30;1.08;;;4.20;99.90;;;;;;6249402;22;20011;-85
2024/02/08 13:35:08;;;;;;;2.95;0.95;;;4.20;99.90;;;;;;6274544;22;20458;-85
2024/02/08 13:37:37;;;;;;;3.28;1.17;;;4.20;99.90;;;;;;6276445;22;20360;-84
2024/02/08 13:40:03;;;;;;;4.88;1.05;;;4.20;99.90;;;;;;6276312;22;20011;-86
2024/02/08 13:42:30;;;;;;;5.13;1.42;;;4.10;99.90;;;;;;6276089;22;20007;-85
2024/02/08 13:45:01;;;;;;;4.82;1.02;;;4.10;99.90;;;;;;6276250;22;20460;-84
2024/02/08 13:47:27;;;;;;;5.80;1.10;;;4.10;99.90;;;;;;6276299;22;20026;-84
2024/02/08 13:49:57;;;;;;;5.05;0.98;;;4.10;99.90;;;;;;6276497;22;20561;-84
2024/02/08 13:52:25;;;;;;;3.80;0.70;;;4.00;99.90;;;;;;6249797;22;20059;-84
2024/02/08 13:54:54;;;;;;;4.55;0.85;;;4.00;99.90;;;;;;6251056;22;20019;-84
2024/02/08 13:57:21;;;;;;;4.53;1.05;;;4.00;99.90;;;;;;6251317;22;20601;-85
2024/02/08 13:59:51;;;;;;;4.30;1.00;;;4.00;99.90;;;;;;6276441;22;20428;-84
2024/02/08 14:02:18;;;;;;;5.10;0.75;;;4.00;99.90;;;;;;6275874;22;20076;-84
2024/02/08 14:04:52;;;;;;;2.97;0.77;;;4.00;99.90;;;;;;6276025;22;20003;-84
2024/02/08 14:07:19;;;;;;;4.75;0.95;;;4.00;99.90;;;;;;6275795;22;20019;-84
2024/02/08 14:09:52;;;;;;;3.47;0.80;;;3.90;99.90;;;;;;6275716;22;20104;-84
2024/02/08 14:12:24;;;;;;;4.03;0.65;;;4.00;99.90;;;;;;6250055;22;20007;-84
2024/02/08 14:14:54;;;;;;;1.75;0.52;;;3.90;99.90;;;;;;6303348;22;20007;-84
2024/02/08 14:17:27;;;;;;;1.70;0.50;;;3.90;99.90;;;;;;6249683;22;20313;-85
2024/02/08 14:19:56;;;;;;;1.55;0.60;;;3.90;99.90;;;;;;6303021;22;20007;-84
2024/02/08 14:22:24;;;;;;;2.65;0.40;;;3.90;99.90;;;;;;6250240;22;20014;-85
2024/02/08 14:24:50;;;;;;;1.73;0.40;;;3.90;99.90;;;;;;6276682;22;20392;-84
2024/02/08 14:27:17;;;;;;;2.20;0.50;;;3.90;99.90;;;;;;6301553;22;20030;-85
2024/02/08 14:29:43;;;;;;;2.42;0.40;;;3.90;99.90;;;;;;6248491;22;20031;-84
2024/02/08 14:32:11;;;;;;;1.77;0.40;;;3.80;99.90;;;;;;6266177;22;20569;-84
2024/02/08 14:34:37;;;;;;;2.03;0.35;;;3.80;99.90;;;;;;6245498;22;20327;-83
2024/02/08 14:37:07;;;;;;;3.90;0.60;;;3.90;99.90;;;;;;6273111;22;20015;-83
2024/02/08 14:39:34;;;;;;;2.35;0.63;;;3.80;99.90;;;;;;6270270;22;20007;-84
2024/02/08 14:42:17;;;;;;;3.00;0.75;;;3.80;99.90;;;;;;6245328;22;20117;-84
2024/02/08 14:44:44;;;;;;;3.33;0.50;;;3.70;99.90;;;;;;6273610;22;20047;-85
2024/02/08 14:47:30;;;;;;;1.63;0.60;;;3.80;99.90;;;;;;6250166;22;20007;-83
2024/02/08 14:49:59;;;;;;;2.67;0.75;;;3.70;99.90;;;;;;6251058;22;20064;-85
2024/02/08 14:52:34;;;;;;;4.68;0.60;;;3.70;99.90;;;;;;6276597;22;20011;-84
2024/02/08 14:55:10;;;;;;;2.97;0.68;;;3.70;99.90;;;;;;6304120;22;20014;-84
2024/02/08 14:57:45;;;;;;;3.58;0.70;;;3.70;99.90;;;;;;6277098;22;20019;-85
2024/02/08 15:03:11;;;;;;;3.33;0.70;;;3.70;99.90;;;;;;6275666;22;20010;-85
2024/02/08 15:05:59;;;;;;;3.22;0.70;;;3.70;99.90;;;;;;6302908;22;20432;-84
2024/02/08 15:11:08;;;;;;;2.28;0.77;;;3.70;99.90;;;;;;6275698;22;20011;-85
2024/02/08 15:13:49;;;;;;;2.88;0.80;;;3.70;99.90;;;;;;6275105;22;20015;-85
2024/02/08 15:16:21;;;;;;;2.50;0.60;;;3.70;99.90;;;;;;6301210;22;20010;-84
2024/02/08 15:18:48;;;;;;;3.28;0.75;;;3.60;99.90;;;;;;6276134;22;20015;-85
2024/02/08 15:21:15;;;;;;;3.33;0.82;;;3.60;99.90;;;;;;6250071;22;20436;-86
2024/02/08 15:26:37;;;;;;;2.72;0.60;;;3.60;99.90;;;;;;6276181;22;20019;-85
2024/02/08 15:29:09;;;;;;;3.65;0.80;;;3.60;99.90;;;;;;6275460;22;20072;-86
2024/02/08 15:37:13;;;;;;;2.22;0.80;;;3.60;99.90;;;;;;6303253;22;20000;-85
2024/02/08 15:42:10;;;;;;;2.33;0.60;;;3.50;99.90;;;;;;6302080;22;20219;-85
2024/02/08 15:44:43;;;;;;;1.98;0.60;;;3.50;99.90;;;;;;6275999;22;20000;-85
2024/02/08 15:47:12;;;;;;;3.80;0.70;;;3.50;99.90;;;;;;6251104;22;20007;-85
2024/02/08 15:49:38;;;;;;;2.95;0.65;;;3.50;99.90;;;;;;6303754;22;20011;-85
2024/02/08 15:52:14;;;;;;;2.78;0.55;;;3.60;99.90;;;;;;6276178;22;20023;-86